Hindsville, Arkansas
Current Conditions -  °F | °C
As of 8:48 PM on Tuesday 27 Jan 2015 (Local Time) from KASG Reporting Station
Clear Clear  
Wind Chill: 41°   Ceiling: Unl
Heat Index: 41°   Visibility: 10mi
Dew Point: 30°   Wind: 0mph
Humidity: 65%   Direction: NA
Pressure: 30.13"   Gusts: NA
Location:  36.14°N, 93.86°W
Report Text: KASG 280248Z 00000KT 10SM SKC 05/M01 A3013 RMK LAST
Loading
Personal Weather Stations






























Interactive Weather Map New forecast layout! Learn more

10-Day Weather Forecast

Advertisements
Track Severe Weather on mobile